Time;durP1;ratioP1;P1;durP2;ratioP2;P2;SDS_P1;SDS_P2;PMS_P1;PMS_P2;Temp;Humidity;BMP_temperature;BMP_pressure;BME280_temperature;BME280_humidity;BME280_pressure;Samples;Min_cycle;Max_cycle;Signal;HPM_P1;HPM_P2
2024/01/26 00:01:24;;;;;;;12.60;7.30;;;9.20;61.90;;;;;;5065849;27;46605;-81
2024/01/26 00:03:51;;;;;;;13.80;7.40;;;9.10;61.90;;;;;;5067580;28;46716;-82
2024/01/26 00:06:17;;;;;;;13.07;7.67;;;9.10;62.20;;;;;;5066165;28;46763;-82
2024/01/26 00:08:42;;;;;;;11.60;6.90;;;9.10;62.30;;;;;;5067425;28;46708;-83
2024/01/26 00:11:15;;;;;;;11.23;7.10;;;9.10;62.40;;;;;;5069528;28;46768;-83
2024/01/26 00:13:40;;;;;;;14.50;8.27;;;9.10;62.80;;;;;;5069295;28;46387;-81
2024/01/26 00:16:06;;;;;;;12.40;8.13;;;9.10;62.90;;;;;;5068385;27;46553;-83
2024/01/26 00:18:31;;;;;;;14.10;8.03;;;9.10;63.20;;;;;;5064792;28;45859;-82
2024/01/26 00:20:57;;;;;;;14.60;8.27;;;9.10;63.30;;;;;;5069748;28;46618;-84
2024/01/26 00:23:23;;;;;;;15.50;7.30;;;9.10;63.50;;;;;;5048650;28;48348;-85
2024/01/26 00:25:48;;;;;;;18.03;8.90;;;9.10;63.50;;;;;;5069475;28;46394;-82
2024/01/26 00:28:14;;;;;;;14.80;8.87;;;9.10;63.50;;;;;;5065303;28;46413;-80
2024/01/26 00:30:39;;;;;;;12.43;8.20;;;9.10;63.50;;;;;;5050437;28;47093;-84
2024/01/26 00:33:05;;;;;;;14.33;8.67;;;9.10;63.70;;;;;;5066510;27;50053;-84
2024/01/26 00:35:30;;;;;;;14.20;8.93;;;9.10;64.10;;;;;;5056406;28;46990;-85
2024/01/26 00:37:56;;;;;;;16.43;9.50;;;9.00;64.60;;;;;;5070200;27;45896;-83
2024/01/26 00:40:22;;;;;;;18.77;8.90;;;9.00;64.60;;;;;;5069133;27;46139;-82
2024/01/26 00:42:48;;;;;;;15.73;9.00;;;9.00;65.20;;;;;;5056975;28;48356;-84
2024/01/26 00:45:13;;;;;;;15.53;9.10;;;8.90;65.60;;;;;;5048005;28;46849;-84
2024/01/26 00:47:39;;;;;;;15.63;9.23;;;8.90;65.90;;;;;;5067980;27;46530;-83
2024/01/26 00:50:05;;;;;;;14.50;9.10;;;8.90;66.30;;;;;;5065340;28;47084;-83
2024/01/26 00:52:30;;;;;;;15.70;9.47;;;8.80;66.60;;;;;;5049639;28;47996;-84
2024/01/26 00:54:56;;;;;;;21.10;9.70;;;8.80;67.10;;;;;;5066956;28;46666;-83
2024/01/26 00:57:22;;;;;;;15.33;8.60;;;8.70;67.20;;;;;;5065452;28;46454;-82
2024/01/26 00:59:48;;;;;;;14.80;8.83;;;8.60;67.50;;;;;;5070471;27;46585;-85
2024/01/26 01:02:14;;;;;;;16.80;8.50;;;8.50;67.70;;;;;;5068565;27;46656;-84
2024/01/26 01:04:40;;;;;;;13.13;8.07;;;8.40;67.90;;;;;;5052308;28;46901;-84
2024/01/26 01:07:05;;;;;;;15.97;8.97;;;8.40;68.00;;;;;;5070631;28;46562;-82
2024/01/26 01:09:31;;;;;;;15.70;8.80;;;8.40;67.90;;;;;;5071070;28;46604;-84
2024/01/26 01:11:57;;;;;;;16.80;9.37;;;8.50;67.80;;;;;;5070359;28;46969;-82
2024/01/26 01:14:24;;;;;;;18.13;10.93;;;8.60;67.40;;;;;;5068166;28;46240;-81
2024/01/26 01:16:50;;;;;;;18.17;10.30;;;8.70;67.10;;;;;;5053676;28;45892;-84
2024/01/26 01:19:16;;;;;;;19.10;10.47;;;8.70;67.00;;;;;;5071710;27;46956;-81
2024/01/26 01:21:41;;;;;;;19.60;10.90;;;8.70;66.80;;;;;;5067802;27;46625;-85
2024/01/26 01:24:07;;;;;;;21.20;11.50;;;8.80;66.80;;;;;;5070359;28;46404;-84
2024/01/26 01:26:33;;;;;;;18.70;10.67;;;8.80;66.70;;;;;;5071042;28;46478;-82
2024/01/26 01:28:58;;;;;;;20.23;11.43;;;8.90;66.70;;;;;;5071731;28;46869;-85
2024/01/26 01:31:24;;;;;;;24.77;12.50;;;8.90;66.60;;;;;;5061072;28;49217;-86
2024/01/26 01:33:50;;;;;;;19.23;11.43;;;8.90;66.70;;;;;;5072772;27;46718;-84
2024/01/26 01:36:16;;;;;;;21.67;11.77;;;9.00;66.80;;;;;;5068716;27;46808;-83
2024/01/26 01:38:41;;;;;;;24.60;11.47;;;9.00;66.80;;;;;;5067791;28;46543;-82
2024/01/26 01:41:07;;;;;;;19.13;10.60;;;9.00;66.70;;;;;;5070035;28;46664;-82
2024/01/26 01:43:33;;;;;;;16.97;9.33;;;9.00;66.70;;;;;;5065044;27;46498;-84
2024/01/26 01:45:58;;;;;;;16.00;9.70;;;9.00;66.80;;;;;;5069184;27;47101;-83
2024/01/26 01:48:25;;;;;;;16.77;9.87;;;9.00;66.80;;;;;;5050933;28;47743;-78
2024/01/26 01:50:51;;;;;;;17.30;9.70;;;8.90;67.00;;;;;;5069633;28;46145;-83
2024/01/26 01:53:17;;;;;;;14.53;8.90;;;8.90;67.30;;;;;;5051573;28;46937;-85
2024/01/26 01:55:44;;;;;;;13.90;8.97;;;8.90;67.50;;;;;;5068592;28;46610;-83
2024/01/26 01:58:10;;;;;;;16.20;9.73;;;8.90;67.50;;;;;;5067192;28;46806;-83
2024/01/26 02:00:37;;;;;;;15.80;9.33;;;8.90;67.50;;;;;;5070054;27;46562;-84
2024/01/26 02:03:03;;;;;;;16.00;9.10;;;8.90;67.40;;;;;;5068292;28;46498;-84
2024/01/26 02:05:29;;;;;;;15.10;9.13;;;8.90;67.20;;;;;;5067528;28;46665;-84
2024/01/26 02:07:54;;;;;;;16.13;9.30;;;8.90;67.20;;;;;;5067974;28;46517;-85
2024/01/26 02:10:20;;;;;;;18.77;9.83;;;8.90;67.00;;;;;;5056745;28;48323;-83
2024/01/26 02:12:46;;;;;;;12.97;9.00;;;8.90;67.10;;;;;;5067060;28;46739;-84
2024/01/26 02:15:11;;;;;;;20.70;10.93;;;8.90;67.40;;;;;;5072049;28;46783;-83
2024/01/26 02:17:39;;;;;;;14.50;9.60;;;8.80;67.50;;;;;;5068418;27;46496;-83
2024/01/26 02:20:05;;;;;;;16.70;10.90;;;8.70;67.90;;;;;;5059578;28;49163;-83
2024/01/26 02:22:31;;;;;;;19.67;10.30;;;8.60;68.30;;;;;;5070945;28;46522;-85
2024/01/26 02:24:56;;;;;;;17.13;10.23;;;8.50;68.90;;;;;;5068221;28;46798;-84
2024/01/26 02:27:22;;;;;;;17.10;11.00;;;8.40;69.40;;;;;;5069107;28;46504;-83
2024/01/26 02:29:48;;;;;;;23.87;11.00;;;8.40;69.80;;;;;;5071567;28;46920;-82
2024/01/26 02:32:14;;;;;;;20.97;11.83;;;8.40;69.80;;;;;;5071837;27;47043;-84
2024/01/26 02:34:40;;;;;;;19.70;10.43;;;8.40;69.70;;;;;;5067347;28;46131;-82
2024/01/26 02:37:06;;;;;;;23.20;12.13;;;8.40;69.60;;;;;;5070410;28;46432;-82
2024/01/26 02:39:33;;;;;;;22.23;12.37;;;8.40;69.60;;;;;;5051754;28;48211;-84
2024/01/26 02:41:59;;;;;;;23.60;12.20;;;8.50;69.90;;;;;;5059982;28;46965;-83
2024/01/26 02:44:25;;;;;;;20.03;12.03;;;8.50;69.70;;;;;;5070197;28;46414;-83
2024/01/26 02:46:50;;;;;;;22.73;12.47;;;8.60;69.40;;;;;;5068711;27;47719;-82
2024/01/26 02:49:16;;;;;;;26.03;13.03;;;8.70;69.30;;;;;;5071335;28;47312;-84
2024/01/26 02:51:42;;;;;;;22.63;12.23;;;8.80;69.30;;;;;;5056159;28;46883;-83
2024/01/26 02:54:07;;;;;;;22.60;12.10;;;8.80;69.00;;;;;;5057293;28;46540;-81
2024/01/26 02:56:33;;;;;;;17.90;10.70;;;8.90;69.00;;;;;;5055591;28;45975;-81
2024/01/26 02:58:59;;;;;;;19.43;11.10;;;8.90;68.80;;;;;;5071896;27;46387;-85
2024/01/26 03:01:24;;;;;;;19.20;11.33;;;8.90;68.70;;;;;;5054820;28;47250;-83
2024/01/26 03:03:50;;;;;;;17.73;10.50;;;9.00;68.80;;;;;;5084177;28;46751;-82
2024/01/26 03:06:16;;;;;;;16.67;10.37;;;9.00;68.80;;;;;;5079099;27;46633;-83
2024/01/26 03:08:41;;;;;;;21.40;9.73;;;9.00;68.80;;;;;;5067148;28;47516;-83
2024/01/26 03:11:07;;;;;;;16.10;9.07;;;9.10;68.70;;;;;;5056059;28;46535;-81
2024/01/26 03:13:33;;;;;;;15.93;9.73;;;9.10;68.80;;;;;;5059252;27;46376;-83
2024/01/26 03:15:58;;;;;;;13.33;8.83;;;9.10;68.60;;;;;;5069761;28;46808;-83
2024/01/26 03:18:24;;;;;;;13.40;8.60;;;9.20;68.40;;;;;;5069547;28;46754;-80
2024/01/26 03:20:49;;;;;;;12.10;8.53;;;9.30;68.40;;;;;;5050637;28;46373;-83
2024/01/26 03:23:15;;;;;;;17.37;8.73;;;9.20;68.30;;;;;;5069119;27;46507;-85
2024/01/26 03:25:41;;;;;;;11.80;7.40;;;9.20;68.50;;;;;;5069312;28;46514;-84
2024/01/26 03:28:06;;;;;;;11.83;7.10;;;9.10;68.80;;;;;;5070131;28;47310;-82
2024/01/26 03:30:33;;;;;;;8.80;5.60;;;9.10;70.00;;;;;;5069218;28;46582;-82
2024/01/26 03:32:59;;;;;;;9.17;6.17;;;9.20;68.80;;;;;;5065451;28;47300;-82
2024/01/26 03:35:24;;;;;;;8.80;6.03;;;9.10;68.80;;;;;;5066261;27;46590;-80
2024/01/26 03:37:50;;;;;;;9.37;6.30;;;9.20;68.80;;;;;;5067390;28;47102;-80
2024/01/26 03:40:15;;;;;;;9.20;5.80;;;9.20;68.60;;;;;;5066889;28;46518;-82
2024/01/26 03:42:42;;;;;;;10.63;6.50;;;9.30;68.50;;;;;;5056751;28;46492;-80
2024/01/26 03:45:08;;;;;;;9.27;5.60;;;9.30;68.60;;;;;;5069737;28;46702;-80
2024/01/26 03:47:33;;;;;;;8.63;5.87;;;9.20;68.40;;;;;;5066547;27;46766;-81
2024/01/26 03:49:59;;;;;;;8.93;5.63;;;9.20;68.50;;;;;;5066990;28;46475;-82
2024/01/26 03:52:24;;;;;;;8.10;5.47;;;9.20;68.60;;;;;;5067897;28;46908;-83
2024/01/26 03:54:50;;;;;;;8.53;5.80;;;9.20;68.70;;;;;;5070006;27;46391;-87
2024/01/26 03:57:16;;;;;;;10.00;5.80;;;9.20;68.80;;;;;;5068559;28;46470;-85
2024/01/26 03:59:41;;;;;;;8.83;5.80;;;9.10;68.80;;;;;;5069537;28;46641;-86
2024/01/26 04:02:07;;;;;;;10.00;5.57;;;9.10;68.90;;;;;;5068875;27;45944;-84
2024/01/26 04:04:32;;;;;;;10.23;6.70;;;9.10;68.80;;;;;;5065283;28;46372;-88
2024/01/26 04:06:58;;;;;;;13.03;7.37;;;9.10;68.90;;;;;;5051713;28;47969;-85
2024/01/26 04:09:23;;;;;;;10.40;6.43;;;9.10;68.90;;;;;;5059435;28;46877;-86
2024/01/26 04:11:49;;;;;;;9.73;6.50;;;9.10;68.80;;;;;;5069055;27;46583;-86
2024/01/26 04:14:14;;;;;;;11.27;6.83;;;9.10;68.80;;;;;;5069890;28;46388;-87
2024/01/26 04:16:40;;;;;;;10.13;6.53;;;9.10;68.80;;;;;;5068926;28;46597;-82
2024/01/26 04:19:05;;;;;;;10.57;6.57;;;9.10;68.70;;;;;;5047865;28;46797;-85
2024/01/26 04:21:31;;;;;;;14.53;7.47;;;9.10;68.60;;;;;;5064047;28;46616;-84
2024/01/26 04:23:57;;;;;;;11.57;6.73;;;9.10;68.60;;;;;;5064246;27;46420;-85
2024/01/26 04:26:23;;;;;;;13.13;7.30;;;9.10;68.60;;;;;;5055926;28;48155;-86
2024/01/26 04:28:48;;;;;;;12.80;6.80;;;9.10;68.60;;;;;;5048186;28;47106;-84
2024/01/26 04:31:14;;;;;;;10.80;7.00;;;9.10;68.70;;;;;;5067719;28;46215;-84
2024/01/26 04:33:39;;;;;;;11.90;7.97;;;9.00;68.80;;;;;;5062961;28;46431;-85
2024/01/26 04:36:09;;;;;;;12.83;7.93;;;8.90;68.90;;;;;;5065365;27;47915;-84
2024/01/26 04:38:38;;;;;;;11.33;7.40;;;9.00;69.20;;;;;;5065472;27;46784;-85
2024/01/26 04:41:04;;;;;;;11.90;7.60;;;8.80;69.10;;;;;;5064194;27;46819;-84
2024/01/26 04:43:30;;;;;;;10.50;7.13;;;8.90;69.20;;;;;;5065695;28;46424;-85
2024/01/26 04:45:56;;;;;;;13.40;7.80;;;8.90;69.30;;;;;;5067380;28;46471;-84
2024/01/26 04:48:21;;;;;;;9.80;7.43;;;8.90;69.30;;;;;;5064255;27;46511;-83
2024/01/26 04:50:47;;;;;;;9.63;6.77;;;8.80;69.30;;;;;;5066401;27;46492;-83
2024/01/26 04:53:13;;;;;;;11.00;6.27;;;8.80;69.20;;;;;;5061601;28;46559;-83
2024/01/26 04:55:38;;;;;;;8.80;5.67;;;8.80;69.40;;;;;;5066410;28;46736;-84
2024/01/26 04:58:04;;;;;;;10.53;6.13;;;8.80;69.40;;;;;;5065362;28;45969;-84
2024/01/26 05:00:30;;;;;;;10.00;5.90;;;8.80;69.30;;;;;;5056072;28;46481;-84
2024/01/26 05:02:55;;;;;;;8.83;5.53;;;8.80;69.30;;;;;;5065100;28;46260;-84
2024/01/26 05:05:21;;;;;;;8.17;5.63;;;8.80;69.20;;;;;;5048847;28;49295;-84
2024/01/26 05:07:47;;;;;;;9.93;5.70;;;8.80;69.20;;;;;;5064736;27;46407;-80
2024/01/26 05:10:12;;;;;;;7.90;5.30;;;8.80;69.30;;;;;;5067402;28;46380;-79
2024/01/26 05:12:38;;;;;;;8.63;5.60;;;8.80;69.20;;;;;;5055751;28;45910;-81
2024/01/26 05:15:07;;;;;;;11.50;5.63;;;8.80;69.30;;;;;;5064459;27;46570;-86
2024/01/26 05:17:33;;;;;;;7.23;4.90;;;8.80;69.20;;;;;;5067800;27;46507;-87
2024/01/26 05:19:58;;;;;;;7.27;5.20;;;8.80;69.10;;;;;;5071313;27;46555;-88
2024/01/26 05:22:24;;;;;;;8.00;5.20;;;8.70;69.00;;;;;;5064859;27;46440;-88
2024/01/26 05:24:49;;;;;;;6.73;3.93;;;8.90;69.30;;;;;;5063063;28;47861;-79
2024/01/26 05:27:15;;;;;;;6.97;4.50;;;8.70;69.20;;;;;;5066170;27;46407;-82
2024/01/26 05:29:41;;;;;;;6.57;4.27;;;8.70;69.20;;;;;;5055672;28;46535;-81
2024/01/26 05:32:07;;;;;;;7.53;4.10;;;8.70;69.30;;;;;;5062798;27;46998;-80
2024/01/26 05:34:32;;;;;;;7.67;4.00;;;8.70;69.20;;;;;;5065287;27;47463;-86
2024/01/26 05:36:58;;;;;;;5.10;3.30;;;8.70;69.10;;;;;;5067644;27;45895;-80
2024/01/26 05:39:23;;;;;;;4.87;2.90;;;8.70;69.20;;;;;;5051163;28;47037;-81
2024/01/26 05:41:49;;;;;;;4.30;3.17;;;8.70;69.10;;;;;;5063258;27;46671;-77
2024/01/26 05:44:14;;;;;;;5.00;3.30;;;8.70;69.00;;;;;;5065046;27;47030;-82
2024/01/26 05:46:40;;;;;;;4.20;2.50;;;8.70;69.10;;;;;;5066968;27;46559;-81
2024/01/26 05:49:05;;;;;;;5.10;3.03;;;8.60;68.80;;;;;;5067461;27;46467;-81
2024/01/26 05:51:31;;;;;;;5.33;2.83;;;8.60;68.80;;;;;;5068390;27;47028;-81
2024/01/26 05:53:56;;;;;;;5.23;3.27;;;8.60;68.90;;;;;;5066150;27;46920;-81
2024/01/26 05:56:22;;;;;;;4.77;2.53;;;8.60;69.00;;;;;;5051659;27;47212;-80
2024/01/26 05:58:48;;;;;;;3.03;2.23;;;8.60;68.90;;;;;;5070182;27;46619;-80
2024/01/26 06:01:13;;;;;;;4.00;2.50;;;8.60;68.80;;;;;;5065417;27;46672;-81
2024/01/26 06:03:39;;;;;;;5.30;2.80;;;8.60;68.80;;;;;;5067452;27;46800;-78
2024/01/26 06:06:05;;;;;;;8.83;2.20;;;8.60;68.80;;;;;;5068793;27;46499;-80
2024/01/26 06:08:30;;;;;;;4.10;2.47;;;8.60;68.80;;;;;;5069236;27;46502;-82
2024/01/26 06:10:57;;;;;;;4.20;2.20;;;8.70;68.70;;;;;;5064259;27;47384;-82
2024/01/26 06:13:23;;;;;;;2.97;1.90;;;8.70;68.50;;;;;;5067473;27;47310;-81
2024/01/26 06:15:50;;;;;;;3.97;2.07;;;8.60;68.50;;;;;;5066684;27;46452;-81
2024/01/26 06:18:15;;;;;;;4.38;2.30;;;8.70;68.50;;;;;;5063837;28;46448;-81
2024/01/26 06:20:41;;;;;;;4.37;2.20;;;8.70;68.40;;;;;;5066763;27;46700;-80
2024/01/26 06:23:06;;;;;;;5.10;2.03;;;8.70;68.90;;;;;;5058007;27;47901;-78
2024/01/26 06:25:32;;;;;;;3.47;2.10;;;8.70;68.80;;;;;;5050451;28;46569;-80
2024/01/26 06:27:58;;;;;;;4.07;2.60;;;8.70;68.80;;;;;;5066676;28;47166;-79
2024/01/26 06:30:24;;;;;;;8.53;5.80;;;8.70;68.60;;;;;;5069156;27;46428;-81
2024/01/26 06:32:50;;;;;;;3.37;1.80;;;8.70;68.40;;;;;;5067182;28;47049;-80
2024/01/26 06:35:15;;;;;;;5.57;1.80;;;8.70;69.10;;;;;;5066576;28;46529;-81
2024/01/26 06:37:41;;;;;;;4.30;1.80;;;8.70;68.20;;;;;;5069662;28;46496;-80
2024/01/26 06:40:10;;;;;;;5.27;1.80;;;8.80;68.20;;;;;;5060354;28;46852;-82
2024/01/26 06:42:40;;;;;;;4.67;1.80;;;8.80;68.10;;;;;;5069448;28;47613;-80
2024/01/26 06:45:09;;;;;;;4.83;1.70;;;8.80;68.10;;;;;;5068683;27;46518;-80
2024/01/26 06:47:35;;;;;;;3.20;1.50;;;8.80;67.90;;;;;;5053508;28;46519;-79
2024/01/26 06:50:00;;;;;;;3.03;2.00;;;8.80;67.70;;;;;;5069768;28;46891;-82
2024/01/26 06:52:27;;;;;;;2.87;1.60;;;8.80;67.60;;;;;;5069927;27;46763;-79
2024/01/26 06:54:52;;;;;;;5.43;2.53;;;8.80;67.50;;;;;;5068918;28;46444;-81
2024/01/26 06:57:18;;;;;;;7.10;2.20;;;8.80;67.50;;;;;;5068150;27;46527;-81
2024/01/26 06:59:43;;;;;;;2.10;1.40;;;8.80;67.50;;;;;;5072572;28;46689;-81
2024/01/26 07:02:09;;;;;;;5.50;1.33;;;8.80;67.40;;;;;;5049017;28;48219;-81
2024/01/26 07:04:34;;;;;;;2.20;1.40;;;8.90;68.60;;;;;;5051999;28;46438;-82
2024/01/26 07:07:00;;;;;;;1.90;1.20;;;8.90;67.20;;;;;;5051536;28;46255;-81
2024/01/26 07:09:26;;;;;;;2.10;1.50;;;8.90;67.00;;;;;;5053616;28;46471;-81
2024/01/26 07:11:51;;;;;;;3.17;1.40;;;9.00;67.00;;;;;;5071778;28;47013;-81
2024/01/26 07:14:17;;;;;;;2.47;1.47;;;9.00;66.90;;;;;;5062090;28;46192;-81
2024/01/26 07:16:42;;;;;;;1.73;1.10;;;9.00;66.90;;;;;;5072367;28;46512;-83
2024/01/26 07:19:08;;;;;;;2.53;1.10;;;9.10;66.60;;;;;;5064968;27;46633;-83
2024/01/26 07:21:34;;;;;;;2.50;1.23;;;9.10;66.50;;;;;;5069806;27;47060;-78
2024/01/26 07:23:59;;;;;;;2.33;1.47;;;9.20;66.40;;;;;;5068081;27;46863;-81
2024/01/26 07:26:25;;;;;;;2.37;1.40;;;9.20;66.40;;;;;;5065522;28;46534;-81
2024/01/26 07:28:50;;;;;;;2.57;1.47;;;9.20;66.20;;;;;;5070680;27;46491;-82
2024/01/26 07:31:16;;;;;;;2.30;1.20;;;9.20;66.10;;;;;;5066855;28;47498;-79
2024/01/26 07:33:42;;;;;;;7.90;4.13;;;9.20;66.10;;;;;;5066707;28;46742;-81
2024/01/26 07:36:07;;;;;;;5.90;4.10;;;9.30;65.90;;;;;;5069660;28;46842;-82
2024/01/26 07:38:33;;;;;;;3.10;1.47;;;9.30;65.90;;;;;;5068385;28;46622;-81
2024/01/26 07:40:59;;;;;;;3.70;2.10;;;9.30;65.70;;;;;;5068569;27;46713;-82
2024/01/26 07:43:25;;;;;;;15.13;9.00;;;9.40;65.60;;;;;;5058613;28;46462;-82
2024/01/26 07:45:50;;;;;;;3.70;2.00;;;9.40;65.00;;;;;;5069909;28;47013;-81
2024/01/26 07:48:16;;;;;;;2.47;1.60;;;9.40;64.90;;;;;;5068171;27;46789;-81
2024/01/26 07:50:42;;;;;;;3.90;1.80;;;9.50;65.00;;;;;;5069807;28;46594;-79
2024/01/26 07:53:08;;;;;;;5.50;1.80;;;9.50;65.00;;;;;;5065896;27;45831;-81
2024/01/26 07:55:34;;;;;;;5.40;1.50;;;9.60;65.10;;;;;;5053330;28;46782;-81
2024/01/26 07:58:00;;;;;;;2.07;1.10;;;9.60;65.10;;;;;;5058684;28;46501;-81
2024/01/26 08:00:26;;;;;;;4.93;1.63;;;9.80;65.50;;;;;;5066233;28;46898;-80
2024/01/26 08:02:52;;;;;;;2.30;1.60;;;9.70;64.50;;;;;;5070276;27;47072;-80
2024/01/26 08:05:17;;;;;;;5.07;1.63;;;9.80;64.20;;;;;;5068042;28;46891;-80
2024/01/26 08:07:43;;;;;;;2.37;1.00;;;9.80;63.90;;;;;;5067495;28;46565;-82
2024/01/26 08:10:09;;;;;;;2.17;0.90;;;9.80;63.90;;;;;;5067183;28;46624;-82
2024/01/26 08:12:35;;;;;;;1.90;0.90;;;9.90;63.70;;;;;;5066645;28;46481;-80
2024/01/26 08:15:01;;;;;;;5.63;1.13;;;9.90;63.60;;;;;;5068242;28;46574;-79
2024/01/26 08:17:27;;;;;;;1.80;1.20;;;10.00;62.30;;;;;;5068147;27;46394;-81
2024/01/26 08:19:53;;;;;;;3.33;1.10;;;10.00;62.10;;;;;;5072148;28;46954;-81
2024/01/26 08:22:18;;;;;;;2.10;1.10;;;10.00;61.90;;;;;;5069364;28;46541;-83
2024/01/26 08:24:44;;;;;;;2.10;1.03;;;10.10;61.60;;;;;;5068128;27;46779;-82
2024/01/26 08:27:10;;;;;;;2.43;1.20;;;10.20;61.40;;;;;;5070423;28;46622;-81
2024/01/26 08:29:35;;;;;;;2.33;0.97;;;10.20;61.10;;;;;;5066609;28;46450;-82
2024/01/26 08:32:01;;;;;;;6.90;1.57;;;10.30;60.90;;;;;;5066916;28;46482;-81
2024/01/26 08:34:27;;;;;;;4.33;1.63;;;10.30;60.80;;;;;;5069017;28;46555;-81
2024/01/26 08:36:52;;;;;;;3.30;1.70;;;10.40;60.50;;;;;;5069682;28;46576;-81
2024/01/26 08:39:18;;;;;;;3.03;1.10;;;10.40;60.30;;;;;;5068226;27;47523;-81
2024/01/26 08:41:43;;;;;;;2.77;1.00;;;10.50;60.10;;;;;;5068116;28;46462;-80
2024/01/26 08:44:10;;;;;;;2.23;0.90;;;10.50;60.00;;;;;;5066975;28;46432;-79
2024/01/26 08:46:38;;;;;;;2.53;0.97;;;10.60;59.90;;;;;;5050203;28;46455;-80
2024/01/26 08:49:06;;;;;;;2.13;1.07;;;10.60;59.40;;;;;;5051603;28;48178;-81
2024/01/26 08:51:32;;;;;;;2.10;1.20;;;10.60;59.40;;;;;;5067364;27;46506;-81
2024/01/26 08:53:57;;;;;;;6.30;1.20;;;10.60;59.10;;;;;;5070340;27;46583;-81
2024/01/26 08:56:24;;;;;;;2.20;1.10;;;10.70;58.80;;;;;;5068395;27;46489;-81
2024/01/26 08:58:50;;;;;;;2.20;1.17;;;10.90;59.70;;;;;;5068809;28;47072;-81
2024/01/26 09:01:15;;;;;;;3.50;1.40;;;10.90;57.80;;;;;;5068723;28;47058;-81
2024/01/26 09:03:41;;;;;;;2.00;1.17;;;11.00;57.40;;;;;;5057114;28;46675;-82
2024/01/26 09:06:08;;;;;;;3.13;1.17;;;11.00;57.00;;;;;;5074207;28;46670;-82
2024/01/26 09:08:34;;;;;;;2.17;1.20;;;11.10;56.80;;;;;;5077501;27;47558;-81
2024/01/26 09:10:59;;;;;;;3.07;1.00;;;11.20;56.30;;;;;;5076748;28;46702;-81
2024/01/26 09:13:25;;;;;;;1.70;0.90;;;11.30;55.70;;;;;;5072375;27;46486;-83
2024/01/26 09:15:51;;;;;;;2.33;1.10;;;11.30;55.40;;;;;;5072342;28;47015;-81
2024/01/26 09:18:17;;;;;;;3.63;1.00;;;11.40;55.30;;;;;;5069093;28;46865;-81
2024/01/26 09:20:44;;;;;;;2.80;0.90;;;11.50;55.10;;;;;;5067699;27;46562;-80
2024/01/26 09:23:09;;;;;;;1.80;0.90;;;11.60;54.50;;;;;;5052833;28;46506;-77
2024/01/26 09:25:35;;;;;;;3.20;0.90;;;11.70;53.70;;;;;;5079541;28;46344;-79
2024/01/26 09:28:01;;;;;;;1.90;0.97;;;11.90;53.40;;;;;;5071915;27;46662;-77
2024/01/26 09:30:26;;;;;;;2.40;1.20;;;12.00;53.50;;;;;;5074913;28;46876;-83
2024/01/26 09:32:52;;;;;;;2.73;0.97;;;11.90;53.30;;;;;;5068751;27;46480;-81
2024/01/26 09:35:17;;;;;;;2.20;1.00;;;11.90;53.30;;;;;;5069809;28;46324;-82
2024/01/26 09:37:43;;;;;;;3.53;1.10;;;11.90;53.20;;;;;;5070113;28;46747;-80
2024/01/26 09:40:12;;;;;;;2.00;0.90;;;11.80;52.60;;;;;;5068639;28;46452;-80
2024/01/26 09:42:38;;;;;;;2.17;1.10;;;11.80;52.70;;;;;;5068041;27;46721;-79
2024/01/26 09:45:04;;;;;;;3.57;0.90;;;11.70;53.10;;;;;;5065085;27;46431;-79
2024/01/26 09:47:34;;;;;;;2.47;1.20;;;11.80;52.20;;;;;;5064722;27;48047;-84
2024/01/26 09:50:03;;;;;;;2.40;1.17;;;11.70;52.00;;;;;;5066639;27;47638;-81
2024/01/26 09:52:29;;;;;;;3.70;1.20;;;11.80;51.60;;;;;;5066891;27;46599;-80
2024/01/26 09:54:55;;;;;;;8.27;4.03;;;11.80;51.20;;;;;;5067376;27;46622;-79
2024/01/26 09:57:21;;;;;;;17.50;8.50;;;11.90;50.90;;;;;;5066190;27;47545;-80
2024/01/26 09:59:50;;;;;;;3.93;2.00;;;12.00;50.50;;;;;;5065414;27;46537;-82
2024/01/26 10:02:17;;;;;;;11.70;4.23;;;12.00;50.00;;;;;;5053497;27;46458;-81
2024/01/26 10:04:43;;;;;;;4.40;1.60;;;12.00;49.40;;;;;;5067262;27;46591;-81
2024/01/26 10:07:09;;;;;;;4.80;1.73;;;12.20;49.20;;;;;;5067812;27;47185;-80
2024/01/26 10:09:35;;;;;;;5.43;1.10;;;12.20;48.50;;;;;;5064490;28;47500;-81
2024/01/26 10:12:01;;;;;;;3.43;1.13;;;12.30;48.30;;;;;;5069815;27;46549;-84
2024/01/26 10:14:27;;;;;;;2.20;1.10;;;12.30;47.80;;;;;;5066344;27;46655;-82
2024/01/26 10:16:57;;;;;;;4.37;1.27;;;12.30;47.80;;;;;;5067992;27;46760;-82
2024/01/26 10:19:26;;;;;;;2.47;1.30;;;12.40;47.70;;;;;;5064605;27;46551;-80
2024/01/26 10:21:53;;;;;;;4.13;1.00;;;12.40;47.40;;;;;;5049932;27;46409;-79
2024/01/26 10:24:23;;;;;;;6.73;1.30;;;12.40;47.00;;;;;;5049619;28;46487;-81
2024/01/26 10:26:52;;;;;;;1.77;0.93;;;12.40;46.90;;;;;;5067926;28;46631;-76
2024/01/26 10:29:17;;;;;;;2.03;1.10;;;12.40;46.60;;;;;;5050572;28;46392;-80
2024/01/26 10:31:45;;;;;;;2.10;1.30;;;12.50;46.20;;;;;;5066865;28;47447;-80
2024/01/26 10:34:15;;;;;;;2.73;1.00;;;12.50;45.60;;;;;;5066440;27;46518;-79
2024/01/26 10:36:45;;;;;;;3.50;1.10;;;12.50;45.50;;;;;;5065898;27;46504;-80
2024/01/26 10:39:28;;;;;;;2.63;1.13;;;12.40;45.20;;;;;;5064857;27;46795;-83
2024/01/26 10:42:03;;;;;;;2.57;1.20;;;12.40;45.30;;;;;;5065352;28;46560;-82
2024/01/26 10:44:30;;;;;;;2.73;1.07;;;12.40;45.30;;;;;;5067778;28;46466;-81
2024/01/26 10:46:58;;;;;;;2.03;1.07;;;12.50;44.80;;;;;;5063868;28;47344;-78
2024/01/26 10:49:25;;;;;;;3.50;1.50;;;12.60;44.30;;;;;;5061716;27;46910;-81
2024/01/26 10:51:53;;;;;;;2.30;1.30;;;12.60;43.70;;;;;;5068687;28;46445;-81
2024/01/26 10:54:23;;;;;;;4.73;1.10;;;12.70;43.30;;;;;;5068275;28;46655;-80
2024/01/26 10:56:48;;;;;;;4.07;2.13;;;12.70;43.20;;;;;;5054258;28;49416;-78
2024/01/26 10:59:16;;;;;;;8.97;3.17;;;12.80;42.90;;;;;;5063435;28;46073;-80
2024/01/26 11:01:43;;;;;;;3.30;1.20;;;12.90;42.40;;;;;;5062289;27;46581;-78
2024/01/26 11:04:12;;;;;;;3.93;1.10;;;12.90;41.10;;;;;;5067180;27;45868;-80
2024/01/26 11:06:41;;;;;;;2.03;1.03;;;13.00;41.10;;;;;;5061754;27;47388;-79
2024/01/26 11:09:08;;;;;;;2.17;1.30;;;13.00;41.10;;;;;;5065940;28;46599;-81
2024/01/26 11:11:38;;;;;;;2.63;1.20;;;12.90;40.80;;;;;;5068845;28;46399;-79
2024/01/26 11:14:05;;;;;;;2.37;1.10;;;12.90;40.00;;;;;;5071314;28;47642;-79
2024/01/26 11:16:35;;;;;;;2.00;1.10;;;13.00;39.50;;;;;;5065439;27;47501;-82
2024/01/26 11:19:02;;;;;;;2.63;1.20;;;13.20;39.20;;;;;;5065063;27;47060;-81
2024/01/26 11:21:44;;;;;;;3.77;1.30;;;13.10;38.90;;;;;;5055763;28;46765;-80
2024/01/26 11:24:15;;;;;;;4.10;1.30;;;13.10;38.60;;;;;;5054843;28;46587;-78
2024/01/26 11:27:04;;;;;;;3.60;1.10;;;13.20;38.60;;;;;;5071646;28;47332;-79
2024/01/26 11:29:34;;;;;;;2.83;1.20;;;13.20;38.20;;;;;;5066497;28;46521;-78
2024/01/26 11:32:00;;;;;;;6.43;1.30;;;13.30;38.10;;;;;;5069712;27;46467;-79
2024/01/26 11:34:25;;;;;;;2.17;1.20;;;13.30;37.50;;;;;;5068199;28;45960;-80
2024/01/26 11:37:14;;;;;;;2.53;1.20;;;13.40;37.30;;;;;;5067972;28;46486;-81
2024/01/26 11:39:40;;;;;;;2.50;1.37;;;13.50;36.90;;;;;;5065599;27;46861;-80
2024/01/26 11:42:11;;;;;;;2.40;1.40;;;13.40;37.20;;;;;;5069951;27;46506;-80
2024/01/26 11:44:49;;;;;;;2.17;1.13;;;13.30;37.30;;;;;;5069585;28;46766;-79
2024/01/26 11:47:16;;;;;;;2.87;1.30;;;13.30;37.20;;;;;;5063674;28;47305;-83
2024/01/26 11:49:42;;;;;;;2.43;1.30;;;13.00;37.30;;;;;;5063913;27;45861;-80
2024/01/26 11:52:08;;;;;;;2.57;1.20;;;12.90;37.80;;;;;;5068930;27;46435;-81
2024/01/26 11:54:34;;;;;;;4.33;1.07;;;12.70;38.20;;;;;;5056402;28;46721;-81
2024/01/26 11:57:02;;;;;;;2.50;1.20;;;12.60;38.70;;;;;;5065568;28;46743;-80
2024/01/26 11:59:31;;;;;;;4.93;1.37;;;12.50;38.90;;;;;;5063126;28;45919;-81
2024/01/26 12:01:57;;;;;;;4.40;1.40;;;12.40;39.30;;;;;;5067431;27;45948;-79
2024/01/26 12:04:26;;;;;;;3.30;1.27;;;12.30;39.30;;;;;;5064646;28;46708;-77
2024/01/26 12:06:54;;;;;;;3.40;1.37;;;12.50;39.40;;;;;;5045894;28;49696;-81
2024/01/26 12:09:20;;;;;;;2.50;1.40;;;12.30;39.20;;;;;;5063265;28;47516;-80
2024/01/26 12:11:46;;;;;;;2.40;1.30;;;12.30;39.10;;;;;;5066391;28;46729;-82
2024/01/26 12:14:12;;;;;;;3.73;1.03;;;12.20;39.10;;;;;;5065905;28;46571;-82
2024/01/26 12:16:39;;;;;;;2.53;1.13;;;12.10;39.30;;;;;;5045996;28;49019;-79
2024/01/26 12:19:06;;;;;;;3.23;1.30;;;12.00;39.40;;;;;;5046156;28;46624;-79
2024/01/26 12:21:32;;;;;;;3.43;1.57;;;11.90;39.70;;;;;;5045447;28;46485;-79
2024/01/26 12:23:57;;;;;;;3.20;1.60;;;11.90;40.20;;;;;;5067497;27;46522;-80
2024/01/26 12:26:23;;;;;;;2.27;1.20;;;11.90;40.20;;;;;;5064914;28;47065;-77
2024/01/26 12:28:49;;;;;;;3.13;1.33;;;11.90;40.20;;;;;;5064336;28;46879;-76
2024/01/26 12:31:16;;;;;;;3.30;1.47;;;11.90;40.10;;;;;;5049471;28;46681;-81
2024/01/26 12:33:45;;;;;;;3.00;1.33;;;11.90;40.10;;;;;;5044552;28;46599;-81
2024/01/26 12:36:12;;;;;;;2.13;1.13;;;11.80;39.90;;;;;;5046599;28;49033;-82
2024/01/26 12:38:37;;;;;;;2.50;1.37;;;11.80;39.90;;;;;;5064758;28;46422;-80
2024/01/26 12:41:03;;;;;;;4.37;1.70;;;11.80;39.60;;;;;;5067143;28;46466;-79
2024/01/26 12:43:29;;;;;;;3.20;1.33;;;11.80;39.60;;;;;;5067039;28;46729;-80